Time;durP1;ratioP1;P1;durP2;ratioP2;P2;SDS_P1;SDS_P2;PMS_P1;PMS_P2;Temp;Humidity;BMP_temperature;BMP_pressure;BME280_temperature;BME280_humidity;BME280_pressure;Samples;Min_cycle;Max_cycle;Signal;HPM_P1;HPM_P2
2021/11/20 00:01:57;;;;;;;19.63;7.38;;;24.80;99.90;;;;;;5102767;28;20102;-69
2021/11/20 00:04:24;;;;;;;17.50;7.20;;;25.10;99.90;;;;;;5101117;28;20466;-72
2021/11/20 00:06:54;;;;;;;15.82;6.82;;;25.10;99.90;;;;;;5098618;28;20026;-70
2021/11/20 00:09:27;;;;;;;20.25;8.45;;;25.00;99.90;;;;;;5097217;28;20016;-69
2021/11/20 00:11:58;;;;;;;21.42;7.78;;;24.90;99.90;;;;;;5095601;28;20035;-69
2021/11/20 00:14:25;;;;;;;20.88;9.77;;;24.70;99.90;;;;;;5097761;28;20030;-69
2021/11/20 00:16:57;;;;;;;27.35;10.90;;;24.50;99.90;;;;;;5105905;28;20134;-71
2021/11/20 00:19:25;;;;;;;20.15;9.68;;;24.40;99.90;;;;;;5101787;28;20512;-70
2021/11/20 00:22:05;;;;;;;17.35;8.07;;;24.40;99.90;;;;;;5100526;28;20501;-70
2021/11/20 00:24:46;;;;;;;21.25;8.10;;;24.40;99.90;;;;;;5105059;28;20108;-70
2021/11/20 00:27:22;;;;;;;18.60;7.37;;;24.50;99.90;;;;;;5096427;28;20043;-69
2021/11/20 00:32:41;;;;;;;16.90;6.80;;;24.60;99.90;;;;;;5104155;28;20345;-73
2021/11/20 00:35:11;;;;;;;16.17;7.53;;;24.40;99.90;;;;;;5096254;28;20019;-73
2021/11/20 00:37:39;;;;;;;18.35;6.82;;;24.20;99.90;;;;;;5095225;28;20015;-69
2021/11/20 00:40:12;;;;;;;16.50;7.93;;;24.20;99.90;;;;;;5093997;28;20172;-73
2021/11/20 00:42:45;;;;;;;19.45;7.70;;;24.20;99.90;;;;;;5093075;28;20035;-71
2021/11/20 00:45:12;;;;;;;21.63;7.95;;;24.10;99.90;;;;;;5095998;28;20028;-69
2021/11/20 00:47:40;;;;;;;20.42;7.95;;;23.90;99.90;;;;;;5106354;28;20020;-72
2021/11/20 00:50:10;;;;;;;14.88;6.88;;;23.80;99.90;;;;;;5100451;28;20031;-67
2021/11/20 00:52:37;;;;;;;22.63;8.32;;;23.80;99.90;;;;;;5096938;28;20077;-71
2021/11/20 00:55:05;;;;;;;17.25;7.93;;;23.90;99.90;;;;;;5094877;28;20073;-67
2021/11/20 00:57:32;;;;;;;18.00;8.00;;;24.10;99.90;;;;;;5096953;28;20023;-71
2021/11/20 00:59:59;;;;;;;20.13;8.35;;;24.20;99.90;;;;;;5092800;28;20470;-67
2021/11/20 01:02:26;;;;;;;17.38;7.85;;;24.10;99.90;;;;;;5091778;28;20425;-68
2021/11/20 01:04:53;;;;;;;17.60;8.13;;;24.10;99.90;;;;;;5099042;28;20099;-66
2021/11/20 01:07:21;;;;;;;18.05;7.43;;;24.10;99.90;;;;;;5098442;28;20032;-69
2021/11/20 01:09:48;;;;;;;17.67;6.75;;;24.10;99.90;;;;;;5100445;28;20024;-69
2021/11/20 01:12:22;;;;;;;18.35;8.32;;;24.20;99.90;;;;;;5104192;28;20012;-68
2021/11/20 01:14:51;;;;;;;16.17;6.35;;;24.30;99.90;;;;;;5102440;28;20551;-70
2021/11/20 01:17:20;;;;;;;15.50;6.97;;;24.00;99.90;;;;;;5099313;28;20082;-67
2021/11/20 01:19:49;;;;;;;17.40;7.68;;;23.80;99.90;;;;;;5074633;28;20032;-72
2021/11/20 01:22:18;;;;;;;16.95;7.57;;;23.60;99.90;;;;;;5091466;28;20024;-71
2021/11/20 01:24:46;;;;;;;23.90;8.75;;;23.50;99.90;;;;;;5101179;28;20081;-70
2021/11/20 01:27:14;;;;;;;19.42;8.18;;;23.60;99.90;;;;;;5095010;28;20036;-72
2021/11/20 01:29:45;;;;;;;24.88;8.68;;;23.60;99.90;;;;;;5092524;28;20052;-67
2021/11/20 01:32:12;;;;;;;22.98;9.25;;;23.90;99.90;;;;;;5096122;28;20512;-68
2021/11/20 01:34:40;;;;;;;16.75;8.02;;;24.00;99.90;;;;;;5099097;28;20030;-69
2021/11/20 01:37:12;;;;;;;19.38;8.10;;;24.10;99.90;;;;;;5098346;28;20094;-69
2021/11/20 01:39:40;;;;;;;22.90;9.33;;;24.00;99.90;;;;;;5094440;28;20020;-71
2021/11/20 01:42:11;;;;;;;20.27;8.73;;;24.10;99.90;;;;;;5100161;28;20028;-72
2021/11/20 01:45:04;;;;;;;23.90;10.60;;;24.30;99.90;;;;;;5102402;28;20528;-71
2021/11/20 01:47:53;;;;;;;15.93;8.57;;;24.40;99.90;;;;;;5057664;28;20028;-67
2021/11/20 01:50:31;;;;;;;18.33;7.88;;;24.40;99.90;;;;;;5098743;28;20044;-70
2021/11/20 01:53:40;;;;;;;21.98;10.07;;;24.50;99.90;;;;;;5098736;28;20026;-66
2021/11/20 01:56:18;;;;;;;25.33;12.85;;;24.40;99.90;;;;;;5081662;28;20454;-76
2021/11/20 01:59:11;;;;;;;21.58;10.98;;;24.40;99.90;;;;;;5093149;28;20060;-69
2021/11/20 02:01:53;;;;;;;22.23;9.02;;;24.40;99.90;;;;;;5097352;28;20301;-72
2021/11/20 02:04:49;;;;;;;20.45;8.57;;;24.50;99.90;;;;;;5099305;28;20036;-69
2021/11/20 02:07:40;;;;;;;17.35;8.85;;;24.50;99.90;;;;;;5096665;28;20115;-74
2021/11/20 02:10:16;;;;;;;18.27;8.55;;;24.40;99.90;;;;;;5097721;28;20032;-70
2021/11/20 02:13:15;;;;;;;18.92;9.13;;;24.40;99.90;;;;;;5102309;28;20553;-70
2021/11/20 02:15:58;;;;;;;18.15;9.35;;;24.40;99.90;;;;;;5100828;28;20032;-73
2021/11/20 02:18:29;;;;;;;19.55;10.40;;;24.20;99.90;;;;;;5072364;28;20032;-68
2021/11/20 02:21:19;;;;;;;21.27;11.77;;;24.30;99.90;;;;;;5099789;28;20042;-71
2021/11/20 02:23:45;;;;;;;17.35;10.13;;;24.10;99.90;;;;;;4378454;28;10000830;-69
2021/11/20 02:26:12;;;;;;;19.48;10.00;;;24.20;99.90;;;;;;5093062;28;20027;-68
2021/11/20 02:28:41;;;;;;;19.95;9.52;;;24.10;99.90;;;;;;5089912;28;20032;-72
2021/11/20 02:31:08;;;;;;;18.45;10.20;;;24.30;99.90;;;;;;5089241;28;20529;-73
2021/11/20 02:33:39;;;;;;;27.00;15.18;;;24.40;99.90;;;;;;5088393;28;20024;-69
2021/11/20 02:36:15;;;;;;;23.98;11.38;;;24.40;99.90;;;;;;5094249;28;20028;-73
2021/11/20 02:38:44;;;;;;;19.80;11.23;;;24.40;99.90;;;;;;5089243;28;20027;-70
2021/11/20 02:41:15;;;;;;;20.98;11.00;;;24.40;99.90;;;;;;5094281;28;20032;-70
2021/11/20 02:43:51;;;;;;;21.25;11.07;;;24.20;99.90;;;;;;5097916;28;20081;-70
2021/11/20 02:46:21;;;;;;;17.65;9.55;;;24.20;99.90;;;;;;5096549;28;20032;-73
2021/11/20 02:48:49;;;;;;;19.13;10.93;;;24.20;99.90;;;;;;5089286;28;20093;-70
2021/11/20 02:51:24;;;;;;;28.55;17.60;;;24.20;99.90;;;;;;5088599;28;20039;-72
2021/11/20 02:54:02;;;;;;;28.50;14.65;;;24.10;99.90;;;;;;5097343;28;20114;-75
2021/11/20 02:56:34;;;;;;;25.58;14.48;;;23.90;99.90;;;;;;5097044;28;20042;-75
2021/11/20 02:59:02;;;;;;;21.05;14.32;;;23.90;99.90;;;;;;5088875;28;20028;-71
2021/11/20 03:01:35;;;;;;;29.52;16.10;;;24.00;99.90;;;;;;5089425;28;20172;-74
2021/11/20 03:04:05;;;;;;;21.98;14.55;;;24.00;99.90;;;;;;5097963;28;20028;-75
2021/11/20 03:06:33;;;;;;;20.77;11.40;;;24.20;99.90;;;;;;5078345;28;20497;-67
2021/11/20 03:09:01;;;;;;;18.63;11.13;;;24.10;99.90;;;;;;5087474;28;20420;-71
2021/11/20 03:11:28;;;;;;;22.05;10.13;;;24.20;99.90;;;;;;5079083;28;20427;-71
2021/11/20 03:13:57;;;;;;;21.35;10.82;;;24.30;99.90;;;;;;5097557;28;20038;-69
2021/11/20 03:16:24;;;;;;;16.38;10.02;;;24.40;99.90;;;;;;5075737;28;20368;-71
2021/11/20 03:18:52;;;;;;;19.08;9.05;;;24.50;99.90;;;;;;5095252;28;20024;-68
2021/11/20 03:21:19;;;;;;;17.38;8.68;;;24.60;99.90;;;;;;5100823;28;20024;-71
2021/11/20 03:23:50;;;;;;;15.50;8.23;;;24.70;99.90;;;;;;5096186;28;20080;-67
2021/11/20 03:26:18;;;;;;;19.40;7.82;;;24.50;99.90;;;;;;5099145;28;20050;-72
2021/11/20 03:28:45;;;;;;;34.40;10.70;;;23.80;99.90;;;;;;5102750;28;20102;-69
2021/11/20 03:31:12;;;;;;;25.05;7.97;;;23.60;99.90;;;;;;5103401;28;20069;-66
2021/11/20 03:33:40;;;;;;;18.00;6.80;;;23.60;99.90;;;;;;5093692;28;20466;-67
2021/11/20 03:36:08;;;;;;;19.85;8.23;;;23.50;99.90;;;;;;5088381;28;20084;-68
2021/11/20 03:38:35;;;;;;;22.13;8.27;;;23.10;99.90;;;;;;5099287;28;20509;-73
2021/11/20 03:41:04;;;;;;;24.33;8.85;;;22.60;99.90;;;;;;5101458;28;20028;-74
2021/11/20 03:43:32;;;;;;;26.20;9.63;;;22.40;99.90;;;;;;5097136;28;20157;-72
2021/11/20 03:46:00;;;;;;;23.80;9.90;;;22.20;99.90;;;;;;5092760;28;20119;-72
2021/11/20 03:48:30;;;;;;;22.42;9.27;;;21.80;99.90;;;;;;5099077;28;20066;-70
2021/11/20 03:51:00;;;;;;;19.42;9.25;;;21.60;99.90;;;;;;5095611;28;20026;-72
2021/11/20 03:53:27;;;;;;;22.30;9.23;;;21.60;99.90;;;;;;5095126;28;20381;-71
2021/11/20 03:55:54;;;;;;;22.35;9.25;;;21.70;99.90;;;;;;5096040;28;20034;-72
2021/11/20 03:58:22;;;;;;;16.17;8.70;;;21.70;99.90;;;;;;5096016;28;20034;-69
2021/11/20 04:00:54;;;;;;;18.02;9.05;;;21.80;99.90;;;;;;5090190;28;20028;-68
2021/11/20 04:03:22;;;;;;;20.33;9.02;;;22.00;99.90;;;;;;5098664;28;20024;-70
2021/11/20 04:05:52;;;;;;;18.30;9.48;;;22.30;99.90;;;;;;5095263;28;20489;-69
2021/11/20 04:08:20;;;;;;;19.23;9.95;;;22.50;99.90;;;;;;5095064;28;20031;-76
2021/11/20 04:10:50;;;;;;;17.40;8.13;;;22.40;99.90;;;;;;5094847;28;20016;-67
2021/11/20 04:13:18;;;;;;;17.65;7.10;;;22.10;99.90;;;;;;5095067;28;20035;-72
2021/11/20 04:15:47;;;;;;;15.30;7.68;;;22.00;99.90;;;;;;5094653;28;20024;-68
2021/11/20 04:18:14;;;;;;;17.38;7.70;;;22.00;99.90;;;;;;5087856;28;20037;-74
2021/11/20 04:20:42;;;;;;;12.30;7.53;;;21.90;99.90;;;;;;5095537;28;20101;-68
2021/11/20 04:23:10;;;;;;;20.05;9.55;;;22.00;99.90;;;;;;5089216;28;20028;-67
2021/11/20 04:25:39;;;;;;;17.88;7.93;;;22.00;99.90;;;;;;5094540;28;20040;-77
2021/11/20 04:28:07;;;;;;;16.70;7.20;;;22.00;99.90;;;;;;5077686;28;20048;-78
2021/11/20 04:30:37;;;;;;;17.90;8.27;;;22.10;99.90;;;;;;5073851;28;20024;-71
2021/11/20 04:33:08;;;;;;;11.45;6.82;;;22.10;99.90;;;;;;5084434;28;20452;-68
2021/11/20 04:35:38;;;;;;;13.75;7.03;;;22.30;99.90;;;;;;5077711;28;20115;-68
2021/11/20 04:38:07;;;;;;;14.65;6.50;;;22.50;99.90;;;;;;5101978;28;20070;-78
2021/11/20 04:40:35;;;;;;;11.55;5.93;;;22.60;99.90;;;;;;5077755;28;20612;-72
2021/11/20 04:43:03;;;;;;;11.95;6.47;;;22.90;99.90;;;;;;5073605;28;20058;-75
2021/11/20 04:45:38;;;;;;;8.90;6.00;;;23.20;99.90;;;;;;5086260;28;20028;-73
2021/11/20 04:48:10;;;;;;;9.05;6.03;;;23.20;99.90;;;;;;5070219;28;20051;-75
2021/11/20 04:50:40;;;;;;;10.93;5.82;;;23.10;99.90;;;;;;5071926;28;20114;-72
2021/11/20 04:53:14;;;;;;;7.80;5.57;;;22.90;99.90;;;;;;5078154;28;20016;-74
2021/11/20 04:55:43;;;;;;;13.18;6.28;;;22.60;99.90;;;;;;5097891;28;20101;-68
2021/11/20 04:58:10;;;;;;;11.05;5.88;;;22.50;99.90;;;;;;5070636;28;20058;-70
2021/11/20 05:00:53;;;;;;;10.63;5.97;;;22.60;99.90;;;;;;5100988;28;20035;-70
2021/11/20 05:03:20;;;;;;;;;;;22.60;99.90;;;;;;5096195;28;20020;-73
2021/11/20 05:05:50;;;;;;;14.90;7.38;;;22.70;99.90;;;;;;5088445;28;19919;-75
2021/11/20 05:08:20;;;;;;;10.77;6.00;;;22.50;99.90;;;;;;5096051;28;20126;-73
2021/11/20 05:10:48;;;;;;;11.88;6.07;;;22.40;99.90;;;;;;5095181;28;20027;-70
2021/11/20 05:13:16;;;;;;;9.43;5.03;;;22.60;99.90;;;;;;5082848;28;20031;-75
2021/11/20 05:15:45;;;;;;;8.43;5.45;;;22.80;99.90;;;;;;5090813;28;20123;-68
2021/11/20 05:18:12;;;;;;;9.23;5.22;;;23.10;99.90;;;;;;5101208;28;20372;-69
2021/11/20 05:20:40;;;;;;;5.40;3.78;;;23.30;99.90;;;;;;5093592;28;20534;-69
2021/11/20 05:23:08;;;;;;;6.47;3.42;;;23.40;99.90;;;;;;5099807;28;20071;-69
2021/11/20 05:25:35;;;;;;;9.55;3.65;;;23.30;99.90;;;;;;5095781;28;20057;-75
2021/11/20 05:28:02;;;;;;;4.55;2.70;;;23.20;99.90;;;;;;5092989;28;20067;-72
2021/11/20 05:30:36;;;;;;;7.30;3.00;;;23.20;99.90;;;;;;5095644;28;20058;-75
2021/11/20 05:33:20;;;;;;;5.00;3.05;;;22.80;99.90;;;;;;5096438;28;20032;-69
2021/11/20 05:35:47;;;;;;;6.90;2.75;;;22.50;99.90;;;;;;5078763;28;20262;-68
2021/11/20 05:38:15;;;;;;;3.90;2.75;;;22.40;99.90;;;;;;5096078;28;20571;-68
2021/11/20 05:40:43;;;;;;;4.53;2.45;;;22.50;99.90;;;;;;5096617;28;20293;-68
2021/11/20 05:43:14;;;;;;;4.13;2.50;;;22.80;99.90;;;;;;5073548;28;20032;-68
2021/11/20 05:45:44;;;;;;;3.78;1.60;;;23.40;99.90;;;;;;5098566;28;20552;-67
2021/11/20 05:48:11;;;;;;;4.82;2.10;;;23.80;99.90;;;;;;5092594;28;20024;-67
2021/11/20 05:50:39;;;;;;;5.32;2.20;;;24.10;99.90;;;;;;5100056;28;20016;-67
2021/11/20 05:53:14;;;;;;;4.00;1.90;;;23.80;99.90;;;;;;5092714;28;20081;-74
2021/11/20 05:55:43;;;;;;;8.32;2.15;;;23.30;99.90;;;;;;5075132;28;20118;-75
2021/11/20 05:58:11;;;;;;;5.53;2.55;;;22.70;99.90;;;;;;5092535;28;20497;-69
2021/11/20 06:00:42;;;;;;;5.72;3.20;;;22.20;99.90;;;;;;5094814;28;20032;-67
2021/11/20 06:03:11;;;;;;;5.13;2.07;;;22.00;99.90;;;;;;5098084;28;20035;-73
2021/11/20 06:05:40;;;;;;;6.07;4.50;;;21.90;99.90;;;;;;5096551;28;20020;-68
2021/11/20 06:08:07;;;;;;;6.90;2.22;;;21.90;99.90;;;;;;5084061;28;20363;-68
2021/11/20 06:10:37;;;;;;;2.78;1.70;;;21.70;99.90;;;;;;5096196;28;20036;-68
2021/11/20 06:13:06;;;;;;;4.10;1.80;;;21.50;99.90;;;;;;5098026;28;20027;-74
2021/11/20 06:15:33;;;;;;;3.85;2.08;;;21.40;99.90;;;;;;5098797;28;20028;-68
2021/11/20 06:18:01;;;;;;;6.15;2.80;;;21.30;99.90;;;;;;5096194;28;20100;-72
2021/11/20 06:20:28;;;;;;;5.47;2.28;;;21.10;99.90;;;;;;5091218;28;20035;-67
2021/11/20 06:23:10;;;;;;;6.60;2.10;;;21.00;99.90;;;;;;5082224;28;20100;-67
2021/11/20 06:25:41;;;;;;;4.57;2.80;;;20.80;99.90;;;;;;5092311;28;20048;-72
2021/11/20 06:28:08;;;;;;;5.07;1.80;;;20.60;99.90;;;;;;5093688;28;20043;-67
2021/11/20 06:30:36;;;;;;;5.82;2.20;;;20.50;99.90;;;;;;5097545;28;20108;-72
2021/11/20 06:33:04;;;;;;;6.13;1.70;;;20.40;99.90;;;;;;5097400;28;20521;-67
2021/11/20 06:35:34;;;;;;;4.88;2.00;;;20.50;99.90;;;;;;5096782;28;20020;-72
2021/11/20 06:38:02;;;;;;;4.30;2.08;;;20.40;99.90;;;;;;5095745;28;20051;-68
2021/11/20 06:40:33;;;;;;;4.35;2.20;;;20.20;99.90;;;;;;5092972;28;20144;-70
2021/11/20 06:43:03;;;;;;;3.63;2.10;;;20.20;99.90;;;;;;5097322;28;20451;-67
2021/11/20 06:45:33;;;;;;;5.32;1.95;;;20.30;99.90;;;;;;5097838;28;20037;-67
2021/11/20 06:48:01;;;;;;;5.03;2.13;;;20.40;99.90;;;;;;5097436;27;20028;-65
2021/11/20 06:50:30;;;;;;;5.03;2.78;;;20.40;99.90;;;;;;5078480;28;20042;-67
2021/11/20 06:52:58;;;;;;;5.22;1.92;;;20.10;99.90;;;;;;5099915;27;20116;-72
2021/11/20 06:55:28;;;;;;;6.35;1.70;;;20.10;99.90;;;;;;5100163;27;20019;-73
2021/11/20 06:57:58;;;;;;;4.90;1.75;;;20.00;99.90;;;;;;5080134;28;20066;-72
2021/11/20 07:00:29;;;;;;;3.75;1.60;;;20.00;99.90;;;;;;5096659;28;20032;-71
2021/11/20 07:03:12;;;;;;;5.22;2.00;;;20.10;99.90;;;;;;5078303;28;20036;-70
2021/11/20 07:05:48;;;;;;;4.32;1.75;;;20.20;99.90;;;;;;5071969;28;20039;-68
2021/11/20 07:08:16;;;;;;;4.45;1.50;;;20.30;99.90;;;;;;5077400;28;20055;-71
2021/11/20 07:10:44;;;;;;;4.55;1.92;;;20.30;99.90;;;;;;5099361;27;20019;-72
2021/11/20 07:13:13;;;;;;;5.13;3.03;;;20.10;99.90;;;;;;5096668;28;20028;-69
2021/11/20 07:15:41;;;;;;;2.58;1.55;;;20.00;99.90;;;;;;5081205;28;20570;-68
2021/11/20 07:18:08;;;;;;;4.57;1.23;;;19.80;99.90;;;;;;5096473;28;20631;-69
2021/11/20 07:20:37;;;;;;;4.45;1.10;;;19.70;99.90;;;;;;5082432;28;20123;-74
2021/11/20 07:23:05;;;;;;;2.67;1.20;;;19.70;99.90;;;;;;5100588;28;20803;-73
2021/11/20 07:25:33;;;;;;;5.03;1.55;;;19.70;99.90;;;;;;5102785;27;20100;-69
2021/11/20 07:28:01;;;;;;;4.43;1.35;;;19.60;99.90;;;;;;5097976;28;20079;-69
2021/11/20 07:30:30;;;;;;;2.78;1.42;;;19.50;99.90;;;;;;5098806;27;20016;-72
2021/11/20 07:33:09;;;;;;;3.03;1.60;;;19.50;99.90;;;;;;5101747;28;20069;-74
2021/11/20 07:35:49;;;;;;;2.78;1.17;;;19.40;99.90;;;;;;5083229;28;20038;-68
2021/11/20 07:38:21;;;;;;;3.88;1.40;;;19.30;99.90;;;;;;5096567;28;20031;-69
2021/11/20 07:40:48;;;;;;;2.95;1.38;;;19.20;99.90;;;;;;5098153;28;20028;-74
2021/11/20 07:43:16;;;;;;;4.70;1.75;;;19.10;99.90;;;;;;5096794;28;20032;-73
2021/11/20 07:45:44;;;;;;;2.53;1.00;;;19.10;99.90;;;;;;5100573;28;20035;-70
2021/11/20 07:48:14;;;;;;;4.45;1.73;;;18.90;99.90;;;;;;5097518;28;20217;-68
2021/11/20 07:50:44;;;;;;;4.75;1.23;;;19.00;99.90;;;;;;5095625;28;20210;-73
2021/11/20 07:53:12;;;;;;;6.00;1.58;;;19.00;99.90;;;;;;5097538;28;20181;-70
2021/11/20 07:55:40;;;;;;;3.13;1.10;;;18.90;99.90;;;;;;5099841;28;20036;-69
2021/11/20 07:58:08;;;;;;;5.28;1.23;;;18.90;99.90;;;;;;5095798;28;20028;-72
2021/11/20 08:00:38;;;;;;;4.35;1.40;;;18.80;99.90;;;;;;5100051;27;20028;-71
2021/11/20 08:03:08;;;;;;;6.95;1.40;;;18.80;99.90;;;;;;5098101;27;20547;-76
2021/11/20 08:05:36;;;;;;;4.55;2.65;;;18.80;99.90;;;;;;5098980;28;20119;-75
2021/11/20 08:08:04;;;;;;;3.95;1.30;;;18.80;99.90;;;;;;5099909;28;20073;-73
2021/11/20 08:10:32;;;;;;;4.20;1.27;;;18.70;99.90;;;;;;5096016;28;20116;-75
2021/11/20 08:13:00;;;;;;;3.38;1.23;;;18.70;99.90;;;;;;5105185;28;20230;-66
2021/11/20 08:15:28;;;;;;;4.15;1.50;;;18.60;99.90;;;;;;5103413;28;20030;-72
2021/11/20 08:17:56;;;;;;;4.95;2.30;;;18.50;99.90;;;;;;5098452;28;20663;-69
2021/11/20 08:20:26;;;;;;;2.85;1.08;;;18.50;99.90;;;;;;5096290;28;20028;-71
2021/11/20 08:22:54;;;;;;;4.38;1.33;;;18.60;99.90;;;;;;5096228;27;20709;-68
2021/11/20 08:25:25;;;;;;;3.78;1.88;;;18.70;99.90;;;;;;5096263;28;20028;-70
2021/11/20 08:27:53;;;;;;;5.43;2.97;;;18.70;99.90;;;;;;5096385;28;20077;-69
2021/11/20 08:30:23;;;;;;;5.82;2.35;;;18.70;99.90;;;;;;5095744;28;20019;-73
2021/11/20 08:32:51;;;;;;;9.68;4.60;;;18.60;99.90;;;;;;5101272;28;20421;-75
2021/11/20 08:35:19;;;;;;;9.63;7.05;;;18.60;99.90;;;;;;5089579;28;20681;-71
2021/11/20 08:37:46;;;;;;;4.00;1.45;;;18.60;99.90;;;;;;5095689;28;20036;-66
2021/11/20 08:40:18;;;;;;;3.85;1.40;;;18.60;99.90;;;;;;5098458;28;20432;-69
2021/11/20 08:42:49;;;;;;;3.53;1.48;;;18.60;99.90;;;;;;5096512;28;20573;-69
2021/11/20 08:45:25;;;;;;;5.47;1.58;;;18.60;99.90;;;;;;5100873;28;20032;-73
2021/11/20 08:47:54;;;;;;;6.45;3.50;;;18.50;99.90;;;;;;5097591;27;20401;-74
2021/11/20 08:50:25;;;;;;;3.50;1.63;;;18.40;99.90;;;;;;5100089;28;20032;-75
2021/11/20 08:52:52;;;;;;;2.42;1.33;;;18.30;99.90;;;;;;5100855;28;20024;-74
2021/11/20 08:55:20;;;;;;;4.70;1.40;;;18.30;99.90;;;;;;5103130;28;20028;-71
2021/11/20 08:57:50;;;;;;;2.47;1.15;;;18.20;99.90;;;;;;5098897;28;20119;-74
2021/11/20 09:00:27;;;;;;;3.28;1.63;;;18.10;99.90;;;;;;5099251;28;20028;-72
2021/11/20 09:03:00;;;;;;;6.03;2.40;;;18.10;99.90;;;;;;5098233;27;20035;-69
2021/11/20 09:05:37;;;;;;;2.72;1.15;;;18.20;99.90;;;;;;5100268;28;20019;-71
2021/11/20 09:08:16;;;;;;;1.80;0.75;;;18.10;99.90;;;;;;5104297;28;20027;-71
2021/11/20 09:10:50;;;;;;;2.30;1.02;;;18.10;99.90;;;;;;4742917;28;10000199;-74
2021/11/20 09:13:31;;;;;;;1.98;0.70;;;18.10;99.90;;;;;;5098333;27;20517;-74
2021/11/20 09:16:07;;;;;;;3.17;1.15;;;18.00;99.90;;;;;;5090667;28;20479;-75
2021/11/20 09:18:35;;;;;;;3.60;1.58;;;18.00;99.90;;;;;;5097102;28;20028;-72
2021/11/20 09:21:04;;;;;;;6.07;1.23;;;18.00;99.90;;;;;;5091367;28;20390;-71
2021/11/20 09:23:31;;;;;;;4.88;1.55;;;18.00;99.90;;;;;;5073441;28;20588;-71
2021/11/20 09:25:59;;;;;;;2.38;1.20;;;17.90;99.90;;;;;;5078067;28;20030;-72
2021/11/20 09:28:28;;;;;;;9.70;5.28;;;17.80;99.90;;;;;;5091259;28;20139;-73
2021/11/20 09:30:59;;;;;;;4.40;1.48;;;17.80;99.90;;;;;;5097177;28;20032;-73
2021/11/20 09:33:27;;;;;;;8.82;1.55;;;17.80;99.90;;;;;;5095229;27;20024;-73
2021/11/20 09:35:57;;;;;;;4.53;1.27;;;17.70;99.90;;;;;;5096484;28;20764;-74
2021/11/20 09:38:28;;;;;;;2.28;1.00;;;17.70;99.90;;;;;;5099591;28;20016;-74
2021/11/20 09:41:18;;;;;;;4.00;1.65;;;17.60;99.90;;;;;;4740688;28;9999841;-75
2021/11/20 09:43:52;;;;;;;2.60;1.45;;;17.60;99.90;;;;;;5092927;28;20035;-70
2021/11/20 09:46:22;;;;;;;6.70;2.25;;;17.50;99.90;;;;;;5099086;28;20378;-68
2021/11/20 09:48:56;;;;;;;6.25;3.13;;;17.50;99.90;;;;;;5100048;28;20020;-72
2021/11/20 09:51:33;;;;;;;6.38;2.10;;;17.40;99.90;;;;;;5081201;28;20024;-67
2021/11/20 09:54:11;;;;;;;5.70;2.42;;;17.50;99.90;;;;;;5098172;28;20365;-75
2021/11/20 09:56:49;;;;;;;5.63;1.80;;;17.60;99.90;;;;;;5098100;28;20039;-75
2021/11/20 09:59:51;;;;;;;4.32;1.30;;;17.40;99.90;;;;;;5097381;28;20090;-72
2021/11/20 10:02:47;;;;;;;6.10;1.30;;;17.30;99.90;;;;;;5096932;28;20083;-72
2021/11/20 10:05:24;;;;;;;4.82;1.13;;;17.30;99.90;;;;;;5070302;28;20036;-69
2021/11/20 10:08:12;;;;;;;4.80;1.23;;;17.20;99.90;;;;;;5098084;28;20094;-68
2021/11/20 10:10:46;;;;;;;2.83;1.58;;;17.20;99.90;;;;;;5093009;28;20035;-68
2021/11/20 10:13:13;;;;;;;6.80;1.15;;;17.20;99.90;;;;;;5099204;28;20373;-75
2021/11/20 10:15:52;;;;;;;3.80;1.00;;;17.20;99.90;;;;;;5097883;28;20462;-75
2021/11/20 10:18:40;;;;;;;2.72;1.00;;;17.20;99.90;;;;;;5093591;28;20050;-73
2021/11/20 10:21:17;;;;;;;4.30;1.65;;;17.20;99.90;;;;;;5097154;28;20049;-70
2021/11/20 10:23:54;;;;;;;13.65;2.92;;;17.30;99.90;;;;;;5102569;28;20092;-74
2021/11/20 10:26:28;;;;;;;6.30;2.92;;;17.30;99.90;;;;;;5087649;22;20085;-73
2021/11/20 10:29:14;;;;;;;4.22;2.15;;;17.30;99.90;;;;;;5061099;28;20444;-70
2021/11/20 10:32:04;;;;;;;5.70;3.97;;;17.20;99.90;;;;;;5060555;28;20100;-67
2021/11/20 10:34:56;;;;;;;6.18;2.80;;;17.20;99.90;;;;;;5061669;28;20028;-68
2021/11/20 10:37:39;;;;;;;6.90;3.55;;;17.20;99.90;;;;;;5061022;28;20494;-68
2021/11/20 10:40:17;;;;;;;3.72;2.60;;;17.30;99.90;;;;;;5060661;28;20033;-74
2021/11/20 10:42:57;;;;;;;5.43;2.70;;;17.30;99.90;;;;;;5062162;28;20761;-70
2021/11/20 10:45:36;;;;;;;5.75;3.08;;;17.30;99.90;;;;;;5061266;28;20032;-68
2021/11/20 10:48:27;;;;;;;5.55;2.90;;;17.30;99.90;;;;;;5057531;28;20249;-71
2021/11/20 10:51:22;;;;;;;8.43;2.78;;;17.30;99.90;;;;;;4709882;28;9999592;-71
2021/11/20 10:54:12;;;;;;;4.35;2.58;;;17.40;99.90;;;;;;5058738;28;20709;-69
2021/11/20 10:57:02;;;;;;;4.65;3.00;;;17.40;99.90;;;;;;5052179;28;20028;-74
2021/11/20 10:59:44;;;;;;;6.47;3.13;;;17.40;99.90;;;;;;5058485;28;20029;-72
2021/11/20 11:02:48;;;;;;;5.27;2.70;;;17.40;99.90;;;;;;5059912;28;20111;-69
2021/11/20 11:05:37;;;;;;;5.53;1.70;;;17.50;99.90;;;;;;5055506;28;20058;-72
2021/11/20 11:08:19;;;;;;;3.55;1.33;;;17.50;99.90;;;;;;5055233;28;20032;-68
2021/11/20 11:10:55;;;;;;;1.95;1.05;;;17.30;99.90;;;;;;5053903;28;20025;-67
2021/11/20 11:13:53;;;;;;;8.65;1.33;;;17.10;99.90;;;;;;5041791;28;20039;-65
2021/11/20 11:16:37;;;;;;;5.68;1.10;;;17.00;99.90;;;;;;5058209;28;20027;-65
2021/11/20 11:19:23;;;;;;;4.30;1.30;;;17.00;99.90;;;;;;5057889;28;20021;-64
2021/11/20 11:22:01;;;;;;;3.33;1.38;;;17.00;99.90;;;;;;5036920;28;20024;-68
2021/11/20 11:25:06;;;;;;;4.13;1.08;;;17.00;99.90;;;;;;5060198;28;20367;-65
2021/11/20 11:27:54;;;;;;;3.50;1.55;;;17.00;99.90;;;;;;5052166;28;20048;-69
2021/11/20 11:30:40;;;;;;;2.72;1.08;;;17.00;99.90;;;;;;5054473;28;20024;-68
2021/11/20 11:33:07;;;;;;;3.70;1.25;;;17.00;99.90;;;;;;5059826;28;20028;-65
2021/11/20 11:35:43;;;;;;;1.65;0.90;;;17.00;99.90;;;;;;5055056;28;20025;-69
2021/11/20 11:38:46;;;;;;;2.88;1.40;;;17.00;99.90;;;;;;5057311;28;20028;-73
2021/11/20 11:41:25;;;;;;;2.47;0.95;;;17.00;99.90;;;;;;5056105;28;20159;-67
2021/11/20 11:44:08;;;;;;;2.40;0.85;;;17.00;99.90;;;;;;5059003;28;20033;-72
2021/11/20 11:46:47;;;;;;;3.05;1.45;;;16.90;99.90;;;;;;5057967;28;20027;-71
2021/11/20 11:49:30;;;;;;;1.95;0.95;;;16.90;99.90;;;;;;5055902;28;20075;-68
2021/11/20 11:52:27;;;;;;;3.78;1.55;;;16.90;99.90;;;;;;5057213;28;20028;-70
2021/11/20 11:55:12;;;;;;;3.75;0.80;;;17.00;99.90;;;;;;5060860;28;20086;-67
2021/11/20 11:58:16;;;;;;;3.58;1.08;;;16.90;99.90;;;;;;5058924;28;20056;-73
2021/11/20 12:01:16;;;;;;;2.15;0.68;;;16.90;99.90;;;;;;5059842;28;20029;-70
2021/11/20 12:04:25;;;;;;;4.43;0.75;;;16.90;99.90;;;;;;5057093;28;20037;-63
2021/11/20 12:07:11;;;;;;;4.68;0.80;;;16.80;99.90;;;;;;5052679;28;20052;-69
2021/11/20 12:09:48;;;;;;;1.92;0.75;;;16.70;99.90;;;;;;5059922;28;20025;-69
2021/11/20 12:12:27;;;;;;;3.75;0.93;;;16.70;99.90;;;;;;5045719;28;20052;-64
2021/11/20 12:15:12;;;;;;;3.58;0.90;;;16.80;99.90;;;;;;5060291;28;20028;-69
2021/11/20 12:17:55;;;;;;;3.53;1.60;;;16.90;99.90;;;;;;5056902;28;20139;-67
2021/11/20 12:20:42;;;;;;;3.80;1.38;;;17.00;99.90;;;;;;5058177;28;20056;-72
2021/11/20 12:23:33;;;;;;;1.25;0.70;;;17.00;99.90;;;;;;5060663;28;20032;-69
2021/11/20 12:26:32;;;;;;;2.35;1.35;;;17.10;99.90;;;;;;5062870;28;20032;-69
2021/11/20 12:29:21;;;;;;;3.65;1.10;;;17.00;99.90;;;;;;5060260;28;20025;-72
2021/11/20 12:31:59;;;;;;;3.90;1.13;;;17.00;99.90;;;;;;5058190;28;20043;-68
2021/11/20 12:35:03;;;;;;;1.48;0.73;;;17.10;99.90;;;;;;5051647;28;20021;-63
2021/11/20 12:37:51;;;;;;;1.45;0.80;;;17.20;99.90;;;;;;5064268;28;20033;-64
2021/11/20 12:40:47;;;;;;;0.85;0.80;;;17.00;99.90;;;;;;5054910;28;20017;-69
2021/11/20 12:43:30;;;;;;;1.70;0.90;;;16.90;99.90;;;;;;5060530;28;20025;-71
2021/11/20 12:46:01;;;;;;;1.08;0.75;;;16.80;99.90;;;;;;5059125;28;20024;-64
2021/11/20 12:49:05;;;;;;;2.63;1.00;;;16.80;99.90;;;;;;5056024;28;20652;-71
2021/11/20 12:51:53;;;;;;;1.98;1.60;;;16.70;99.90;;;;;;5059359;28;20123;-67
2021/11/20 12:54:26;;;;;;;3.67;2.60;;;16.70;99.90;;;;;;5055544;28;20052;-72
2021/11/20 12:57:25;;;;;;;3.60;1.70;;;16.60;99.90;;;;;;5045752;28;20068;-68
2021/11/20 13:00:24;;;;;;;1.95;1.80;;;16.50;99.90;;;;;;5030424;28;20053;-64
2021/11/20 13:03:09;;;;;;;2.33;1.88;;;16.60;99.90;;;;;;5042942;28;20033;-64
2021/11/20 13:05:55;;;;;;;2.38;1.88;;;16.40;99.90;;;;;;5055207;28;20053;-65
2021/11/20 13:08:48;;;;;;;4.45;2.30;;;16.30;99.90;;;;;;5056517;28;20039;-68
2021/11/20 13:11:31;;;;;;;2.75;2.33;;;16.20;99.90;;;;;;5057876;28;20464;-67
2021/11/20 13:14:24;;;;;;;2.65;2.45;;;16.10;99.90;;;;;;5057888;28;20783;-67
2021/11/20 13:17:09;;;;;;;4.35;2.47;;;16.00;99.90;;;;;;5063518;28;20029;-64
2021/11/20 13:19:48;;;;;;;3.58;2.70;;;16.00;99.90;;;;;;5055867;28;20447;-67
2021/11/20 13:22:29;;;;;;;4.90;2.83;;;15.90;99.90;;;;;;5057822;28;20754;-70
2021/11/20 13:25:00;;;;;;;4.07;2.75;;;15.90;99.90;;;;;;5060703;28;20031;-67